Time;durP1;ratioP1;P1;durP2;ratioP2;P2;SDS_P1;SDS_P2;PMS_P1;PMS_P2;Temp;Humidity;BMP_temperature;BMP_pressure;BME280_temperature;BME280_humidity;BME280_pressure;Samples;Min_cycle;Max_cycle;Signal;HPM_P1;HPM_P2
2024/01/18 00:01:37;;;;;;;2.90;1.80;;;;;;;6.04;79.38;94059.95;108593;1273;22523;-80
2024/01/18 00:04:08;;;;;;;2.80;1.70;;;;;;;6.06;79.49;94054.20;108646;1273;25353;-80
2024/01/18 00:06:39;;;;;;;3.30;1.80;;;;;;;6.10;79.59;94061.80;108607;1267;24282;-80
2024/01/18 00:09:10;;;;;;;2.30;1.80;;;;;;;6.18;79.60;94058.66;108571;1273;24402;-80
2024/01/18 00:11:40;;;;;;;1.80;1.00;;;;;;;6.26;79.41;94044.71;108602;1273;22895;-80
2024/01/18 00:14:11;;;;;;;2.40;1.50;;;;;;;6.38;79.54;94068.59;108584;1274;23681;-80
2024/01/18 00:16:42;;;;;;;2.10;1.60;;;;;;;6.48;79.06;94061.79;108632;1273;24276;-79
2024/01/18 00:19:13;;;;;;;2.80;1.50;;;;;;;6.54;78.89;94071.36;108508;1266;22582;-80
2024/01/18 00:21:44;;;;;;;3.20;1.60;;;;;;;6.65;78.78;94070.32;108599;1273;23438;-80
2024/01/18 00:24:15;;;;;;;4.70;1.60;;;;;;;6.65;78.53;94068.18;108588;1270;23623;-80
2024/01/18 00:26:46;;;;;;;2.70;1.90;;;;;;;6.55;78.29;94051.79;108550;1274;24138;-80
2024/01/18 00:29:17;;;;;;;2.50;1.60;;;;;;;6.49;78.30;94046.43;108571;1266;22597;-80
2024/01/18 00:31:47;;;;;;;2.10;1.40;;;;;;;6.50;78.67;94060.09;108585;1269;22536;-80
2024/01/18 00:34:18;;;;;;;2.00;1.30;;;;;;;6.54;78.49;94051.98;108546;1274;22558;-80
2024/01/18 00:36:49;;;;;;;2.90;1.70;;;;;;;6.52;78.58;94055.12;108600;1267;24248;-81
2024/01/18 00:39:21;;;;;;;2.40;1.60;;;;;;;6.55;78.98;94047.70;108573;1274;22554;-80
2024/01/18 00:41:52;;;;;;;2.30;1.50;;;;;;;6.54;78.98;94061.30;108563;1273;22527;-80
2024/01/18 00:44:22;;;;;;;2.00;1.20;;;;;;;6.48;79.05;94060.93;108534;1267;25417;-80
2024/01/18 00:46:54;;;;;;;2.10;1.40;;;;;;;6.47;79.30;94058.20;108587;1273;23178;-81
2024/01/18 00:49:25;;;;;;;2.10;1.00;;;;;;;6.45;79.75;94050.23;108552;1273;22580;-80
2024/01/18 00:51:55;;;;;;;1.60;1.10;;;;;;;6.49;79.97;94053.06;108400;1273;235689;-80
2024/01/18 00:54:26;;;;;;;1.70;1.30;;;;;;;6.57;80.40;94047.27;108574;1273;22528;-80
2024/01/18 00:56:57;;;;;;;1.80;1.40;;;;;;;6.67;80.59;94047.05;108579;1267;22644;-81
2024/01/18 00:59:29;;;;;;;2.70;1.50;;;;;;;6.69;80.65;94054.00;108570;1273;22629;-81
2024/01/18 01:02:00;;;;;;;2.70;1.30;;;;;;;6.69;80.63;94061.13;108585;1273;22559;-80
2024/01/18 01:04:31;;;;;;;2.80;1.30;;;;;;;6.71;81.00;94071.89;108591;1267;22558;-81
2024/01/18 01:07:03;;;;;;;1.60;1.10;;;;;;;6.78;81.07;94064.81;108604;1274;22607;-81
2024/01/18 01:09:33;;;;;;;1.40;1.10;;;;;;;6.77;80.97;94073.72;108560;1273;22523;-80
2024/01/18 01:12:05;;;;;;;1.20;1.10;;;;;;;6.85;81.41;94064.88;108583;1267;22520;-80
2024/01/18 01:14:35;;;;;;;2.10;1.20;;;;;;;6.89;81.41;94057.23;108596;1267;25309;-80
2024/01/18 01:17:07;;;;;;;3.00;1.10;;;;;;;6.87;81.66;94065.29;108623;1274;22535;-81
2024/01/18 01:19:37;;;;;;;2.00;1.10;;;;;;;6.85;81.61;94058.36;108554;1274;24649;-81
2024/01/18 01:22:08;;;;;;;1.40;1.10;;;;;;;6.84;81.68;94059.02;108603;1274;22556;-81
2024/01/18 01:24:39;;;;;;;1.20;1.10;;;;;;;6.82;81.82;94066.40;108595;1274;24361;-81
2024/01/18 01:27:10;;;;;;;2.60;1.30;;;;;;;6.87;82.13;94062.13;108592;1267;22528;-81
2024/01/18 01:29:41;;;;;;;1.10;1.00;;;;;;;6.92;82.36;94071.45;108561;1273;24330;-80
2024/01/18 01:32:12;;;;;;;3.30;1.20;;;;;;;7.01;82.22;94066.16;108591;1274;22524;-81
2024/01/18 01:34:43;;;;;;;1.10;0.80;;;;;;;7.02;82.19;94058.95;108594;1269;22534;-80
2024/01/18 01:37:15;;;;;;;1.50;1.20;;;;;;;7.07;82.46;94055.35;108582;1270;22527;-80
2024/01/18 01:39:46;;;;;;;1.50;1.20;;;;;;;7.26;82.69;94057.85;108537;1274;24360;-81
2024/01/18 01:42:17;;;;;;;1.30;1.00;;;;;;;7.38;82.31;94062.13;108555;1273;22524;-80
2024/01/18 01:44:47;;;;;;;1.40;1.00;;;;;;;7.57;82.57;94058.11;108574;1274;22524;-80
2024/01/18 01:47:18;;;;;;;1.90;1.00;;;;;;;7.85;81.90;94059.13;108577;1267;22604;-80
2024/01/18 01:49:49;;;;;;;1.40;1.10;;;;;;;8.04;81.28;94032.11;108555;1267;22760;-80
2024/01/18 01:52:21;;;;;;;2.80;1.00;;;;;;;8.19;80.82;94066.09;108590;1267;23347;-81
2024/01/18 01:54:52;;;;;;;1.60;0.70;;;;;;;8.27;80.34;94066.31;108581;1274;22641;-80
2024/01/18 01:57:24;;;;;;;0.80;0.60;;;;;;;8.22;79.93;94076.30;108542;1267;24272;-80
2024/01/18 01:59:56;;;;;;;2.00;1.20;;;;;;;8.08;80.26;94058.77;108573;1250;22546;-81
2024/01/18 02:02:27;;;;;;;1.90;1.10;;;;;;;7.92;80.22;94076.92;108516;1267;22539;-81
2024/01/18 02:04:58;;;;;;;1.50;1.10;;;;;;;7.75;80.49;94069.00;108596;1273;22524;-81
2024/01/18 02:07:30;;;;;;;2.10;1.40;;;;;;;7.64;81.03;94052.64;108553;1269;22541;-81
2024/01/18 02:10:02;;;;;;;3.00;1.10;;;;;;;7.64;81.51;94066.20;108547;1273;26163;-81
2024/01/18 02:12:34;;;;;;;1.60;1.00;;;;;;;7.55;81.66;94046.25;108588;1274;22520;-81
2024/01/18 02:15:08;;;;;;;1.80;1.30;;;;;;;7.59;82.10;94049.60;108574;1273;24234;-81
2024/01/18 02:17:39;;;;;;;2.20;1.00;;;;;;;7.59;82.06;94063.73;108645;1274;22528;-81
2024/01/18 02:20:12;;;;;;;1.20;1.10;;;;;;;7.63;82.48;94059.54;108554;1273;24224;-81
2024/01/18 02:22:44;;;;;;;2.00;1.10;;;;;;;7.66;82.17;94057.59;108588;1266;22524;-81
2024/01/18 02:25:20;;;;;;;1.40;1.00;;;;;;;7.58;82.05;94060.73;108568;1273;22518;-81
2024/01/18 02:27:53;;;;;;;1.60;1.00;;;;;;;7.53;82.51;94058.33;108667;1270;22528;-81
2024/01/18 02:30:24;;;;;;;0.70;0.60;;;;;;;7.56;82.72;94058.67;108534;1273;22571;-82
2024/01/18 02:32:55;;;;;;;1.40;0.90;;;;;;;7.60;82.88;94045.23;108558;1274;22550;-81
2024/01/18 02:35:26;;;;;;;1.80;1.10;;;;;;;7.56;82.78;94037.57;108611;1273;25282;-82
2024/01/18 02:37:57;;;;;;;2.30;1.10;;;;;;;7.53;82.97;94041.15;108596;1273;22537;-81
2024/01/18 02:40:28;;;;;;;1.40;1.00;;;;;;;7.55;83.20;94033.91;108570;1273;23292;-82
2024/01/18 02:42:59;;;;;;;1.40;0.70;;;;;;;7.67;83.66;94034.35;108591;1266;22572;-82
2024/01/18 02:45:31;;;;;;;0.90;0.80;;;;;;;7.83;83.51;94036.41;108518;1273;24412;-82
2024/01/18 02:48:02;;;;;;;0.60;0.50;;;;;;;7.90;83.40;94038.95;108581;1273;22546;-82
2024/01/18 02:50:33;;;;;;;0.70;0.60;;;;;;;8.04;83.20;94032.20;108572;1270;22537;-82
2024/01/18 02:53:03;;;;;;;0.70;0.60;;;;;;;8.13;82.88;94036.71;108535;1273;22552;-81
2024/01/18 02:55:34;;;;;;;0.80;0.70;;;;;;;8.18;82.62;94022.20;108567;1267;22562;-81
2024/01/18 02:58:05;;;;;;;0.50;0.40;;;;;;;8.21;82.27;94032.27;108618;1267;22606;-82
2024/01/18 03:00:38;;;;;;;0.60;0.50;;;;;;;8.10;82.10;94036.00;108540;1273;22523;-81
2024/01/18 03:03:09;;;;;;;0.60;0.40;;;;;;;7.97;82.27;94046.19;108574;1273;22534;-82
2024/01/18 03:05:39;;;;;;;0.90;0.80;;;;;;;7.87;82.27;94044.64;108599;1272;22596;-81
2024/01/18 03:08:10;;;;;;;2.00;1.30;;;;;;;7.77;82.18;94054.07;108563;1269;22542;-81
2024/01/18 03:10:41;;;;;;;1.50;0.90;;;;;;;7.57;82.13;94040.10;108577;1273;26486;-81
2024/01/18 03:13:12;;;;;;;1.10;0.90;;;;;;;7.59;82.78;94047.92;108591;1273;22532;-81
2024/01/18 03:15:43;;;;;;;1.30;0.80;;;;;;;7.59;83.14;94037.48;108587;1268;24268;-81
2024/01/18 03:18:14;;;;;;;1.30;1.10;;;;;;;7.67;82.94;94048.52;108649;1273;22651;-81
2024/01/18 03:20:45;;;;;;;1.20;0.80;;;;;;;7.49;82.63;94049.05;108526;1273;23021;-81
2024/01/18 03:23:16;;;;;;;1.60;1.20;;;;;;;7.47;83.31;94046.88;108557;1259;24206;-81
2024/01/18 03:25:47;;;;;;;2.00;1.20;;;;;;;7.37;82.86;94059.09;108586;1269;22540;-81
2024/01/18 03:28:18;;;;;;;2.10;1.60;;;;;;;7.15;82.45;94054.08;108579;1269;22659;-81
2024/01/18 03:30:49;;;;;;;2.10;1.40;;;;;;;6.97;82.67;94057.80;108552;1269;24212;-81
2024/01/18 03:33:19;;;;;;;2.10;1.30;;;;;;;6.86;83.03;94057.86;108583;1269;22531;-81
2024/01/18 03:35:50;;;;;;;1.50;1.20;;;;;;;6.79;83.11;94053.25;108561;1274;22532;-81
2024/01/18 03:38:21;;;;;;;2.10;1.30;;;;;;;6.71;83.28;94059.38;108589;1267;22534;-82
2024/01/18 03:40:52;;;;;;;3.40;1.60;;;;;;;6.68;83.70;94057.85;108550;1274;22557;-81
2024/01/18 03:43:23;;;;;;;2.20;1.60;;;;;;;6.67;83.85;94061.35;108554;1273;22531;-82
2024/01/18 03:45:54;;;;;;;3.00;2.00;;;;;;;6.58;83.77;94062.49;108560;1274;22535;-81
2024/01/18 03:48:24;;;;;;;2.40;2.00;;;;;;;6.54;84.10;94066.02;108581;1267;25301;-82
2024/01/18 03:50:55;;;;;;;1.70;1.30;;;;;;;6.44;84.21;94056.30;108548;1273;22657;-81
2024/01/18 03:53:26;;;;;;;2.30;1.40;;;;;;;6.38;84.25;94063.11;108548;1274;23560;-81
2024/01/18 03:55:57;;;;;;;2.00;1.50;;;;;;;6.37;84.41;94057.42;108558;1270;24137;-81
2024/01/18 03:58:28;;;;;;;2.20;1.60;;;;;;;6.30;84.41;94057.42;108594;1274;24203;-81
2024/01/18 04:00:58;;;;;;;1.40;1.10;;;;;;;6.26;84.69;94056.67;108567;1266;22624;-81
2024/01/18 04:03:29;;;;;;;2.00;1.30;;;;;;;6.26;84.73;94050.52;108591;1269;22656;-82
2024/01/18 04:06:00;;;;;;;1.70;1.40;;;;;;;6.28;84.96;94052.82;108611;1273;22625;-82
2024/01/18 04:08:31;;;;;;;1.90;1.50;;;;;;;6.24;84.80;94052.90;108520;1274;22517;-81
2024/01/18 04:11:02;;;;;;;1.50;1.30;;;;;;;6.19;84.99;94046.53;108619;1269;22524;-81
2024/01/18 04:13:33;;;;;;;1.70;1.10;;;;;;;6.17;84.92;94042.59;108572;1273;22549;-81
2024/01/18 04:16:04;;;;;;;1.50;1.00;;;;;;;6.16;85.33;94040.00;108643;1274;22535;-81
2024/01/18 04:18:36;;;;;;;2.60;1.70;;;;;;;6.18;85.30;94043.40;108601;1270;22582;-81
2024/01/18 04:21:07;;;;;;;2.30;1.70;;;;;;;6.09;85.21;94052.95;108564;1273;22544;-81
2024/01/18 04:23:38;;;;;;;2.50;1.70;;;;;;;5.99;85.31;94047.18;108558;1273;25368;-81
2024/01/18 04:26:09;;;;;;;2.50;1.70;;;;;;;5.88;85.36;94047.42;108632;1274;25479;-82
2024/01/18 04:28:40;;;;;;;2.10;1.60;;;;;;;5.80;85.46;94047.14;108553;1273;22597;-81
2024/01/18 04:31:11;;;;;;;2.20;1.60;;;;;;;5.76;85.66;94045.00;108594;1273;22561;-82
2024/01/18 04:33:42;;;;;;;1.90;1.10;;;;;;;5.74;86.02;94043.63;108606;1274;25369;-81
2024/01/18 04:36:13;;;;;;;1.80;1.50;;;;;;;5.72;85.93;94045.95;108561;1273;22719;-82
2024/01/18 04:38:44;;;;;;;3.50;2.10;;;;;;;5.70;86.10;94050.41;108541;1273;22550;-81
2024/01/18 04:41:15;;;;;;;2.70;1.80;;;;;;;5.68;86.21;94055.56;108565;1272;22535;-81
2024/01/18 04:43:45;;;;;;;2.70;1.50;;;;;;;5.65;86.30;94051.75;108584;1270;24396;-82
2024/01/18 04:46:16;;;;;;;2.50;1.60;;;;;;;5.61;86.48;94060.42;108563;1274;22570;-81
2024/01/18 04:48:47;;;;;;;4.00;2.00;;;;;;;5.55;86.49;94069.30;108552;1272;22518;-81
2024/01/18 04:51:19;;;;;;;2.30;1.50;;;;;;;5.50;86.82;94072.93;108445;1276;25399;-81
2024/01/18 04:53:50;;;;;;;2.20;1.60;;;;;;;5.48;86.92;94067.97;108410;1270;22547;-81
2024/01/18 04:56:21;;;;;;;3.30;1.50;;;;;;;5.45;87.21;94067.06;108453;1276;22533;-81
2024/01/18 04:58:52;;;;;;;3.20;1.90;;;;;;;5.47;87.61;94064.73;108433;1270;22859;-81
2024/01/18 05:01:23;;;;;;;2.20;1.40;;;;;;;5.45;87.69;94067.55;108606;1274;26836;-81
2024/01/18 05:03:53;;;;;;;2.40;1.60;;;;;;;5.40;87.89;94064.06;108568;1269;22535;-82
2024/01/18 05:06:24;;;;;;;3.00;1.90;;;;;;;5.35;87.99;94067.83;108596;1274;22536;-81
2024/01/18 05:08:55;;;;;;;4.10;2.60;;;;;;;5.31;88.19;94068.02;108574;1273;22527;-81
2024/01/18 05:11:26;;;;;;;3.70;2.30;;;;;;;5.26;88.28;94069.76;108525;1269;22773;-82
2024/01/18 05:13:57;;;;;;;5.20;2.90;;;;;;;5.21;88.53;94073.27;108557;1267;24954;-82
2024/01/18 05:16:28;;;;;;;3.90;2.20;;;;;;;5.18;88.83;94068.84;108602;1273;22529;-82
2024/01/18 05:18:59;;;;;;;3.50;2.10;;;;;;;5.16;89.23;94074.30;108589;1273;22612;-81
2024/01/18 05:21:30;;;;;;;3.70;1.90;;;;;;;5.14;89.53;94077.80;108566;1274;22573;-82
2024/01/18 05:24:00;;;;;;;3.90;1.90;;;;;;;5.14;89.92;94078.77;108580;1273;22531;-82
2024/01/18 05:26:32;;;;;;;2.20;1.50;;;;;;;5.13;89.95;94083.64;108607;1269;22575;-82
2024/01/18 05:29:03;;;;;;;2.50;1.60;;;;;;;5.12;90.35;94084.92;108523;1273;25262;-81
2024/01/18 05:31:34;;;;;;;2.80;2.00;;;;;;;5.12;90.52;94078.17;108600;1272;22542;-82
2024/01/18 05:34:05;;;;;;;1.80;1.40;;;;;;;5.09;90.61;94077.23;108578;1274;25376;-81
2024/01/18 05:36:36;;;;;;;2.30;1.60;;;;;;;5.08;91.03;94075.75;108625;1269;23065;-82
2024/01/18 05:39:07;;;;;;;2.70;1.80;;;;;;;5.09;91.17;94079.77;108536;1267;22799;-81
2024/01/18 05:41:38;;;;;;;2.20;1.30;;;;;;;5.15;91.80;94081.38;108538;1274;25613;-82
2024/01/18 05:44:10;;;;;;;1.80;1.30;;;;;;;5.21;91.99;94083.00;108586;1268;22534;-82
2024/01/18 05:46:40;;;;;;;4.90;1.10;;;;;;;5.42;93.62;94081.13;108593;1271;22735;-81
2024/01/18 05:49:11;;;;;;;2.70;1.40;;;;;;;5.73;94.83;94079.11;108552;1273;22601;-81
2024/01/18 05:51:43;;;;;;;3.60;1.50;;;;;;;5.91;95.67;94082.93;108575;1274;25355;-81
2024/01/18 05:54:13;;;;;;;1.80;1.20;;;;;;;6.02;96.44;94080.00;108595;1273;23080;-81
2024/01/18 05:56:46;;;;;;;1.50;0.70;;;;;;;6.06;96.79;94081.86;108536;1266;24464;-81
2024/01/18 05:59:17;;;;;;;1.60;1.20;;;;;;;6.06;97.62;94074.77;108610;1274;22632;-82
2024/01/18 06:01:48;;;;;;;2.90;1.50;;;;;;;6.11;98.35;94077.61;108598;1269;22581;-82
2024/01/18 06:04:19;;;;;;;3.10;1.60;;;;;;;6.08;97.47;94092.38;108626;1267;25275;-83
2024/01/18 06:06:50;;;;;;;1.70;1.30;;;;;;;6.00;97.03;94086.84;108542;1274;25438;-82
2024/01/18 06:09:21;;;;;;;1.70;1.50;;;;;;;5.95;97.29;94092.11;108707;1273;22530;-83
2024/01/18 06:11:53;;;;;;;3.50;1.60;;;;;;;5.88;97.23;94094.61;108820;1266;22620;-83
2024/01/18 06:14:25;;;;;;;2.80;1.70;;;;;;;5.78;96.92;94093.77;108833;1266;22539;-83
2024/01/18 06:16:57;;;;;;;3.00;2.10;;;;;;;5.72;96.99;94101.45;108698;1270;23701;-84
2024/01/18 06:19:28;;;;;;;2.80;1.90;;;;;;;5.65;96.86;94103.48;108651;1273;26498;-83
2024/01/18 06:22:00;;;;;;;2.40;1.50;;;;;;;5.61;96.96;94105.32;109100;1272;22534;-84
2024/01/18 06:24:31;;;;;;;2.00;1.70;;;;;;;5.60;97.07;94108.29;109055;1273;25269;-83
2024/01/18 06:27:02;;;;;;;1.90;1.50;;;;;;;5.63;97.38;94098.38;109068;1266;22562;-83
2024/01/18 06:29:34;;;;;;;5.30;2.50;;;;;;;5.73;97.35;94111.09;109048;1273;22528;-84
2024/01/18 06:32:06;;;;;;;3.30;2.30;;;;;;;5.71;97.14;94112.29;109066;1273;22644;-84
2024/01/18 06:34:37;;;;;;;3.30;2.10;;;;;;;5.62;96.65;94116.48;109089;1273;22651;-84
2024/01/18 06:37:08;;;;;;;2.60;2.00;;;;;;;5.54;96.38;94119.85;109035;1273;22537;-83
2024/01/18 06:39:39;;;;;;;2.90;1.90;;;;;;;5.48;96.55;94126.73;109087;1262;22633;-84
2024/01/18 06:42:12;;;;;;;2.90;1.70;;;;;;;5.45;96.43;94125.77;109100;1266;22545;-84
2024/01/18 06:44:46;;;;;;;2.80;2.00;;;;;;;5.47;96.81;94121.92;109057;1269;22539;-84
2024/01/18 06:47:17;;;;;;;1.60;1.00;;;;;;;5.48;96.85;94118.22;109167;1262;24390;-84
2024/01/18 06:49:48;;;;;;;1.90;1.30;;;;;;;5.45;96.82;94120.94;109062;1273;23276;-83
2024/01/18 06:52:19;;;;;;;2.50;1.50;;;;;;;5.52;97.23;94121.35;109052;1273;25549;-83
2024/01/18 06:54:50;;;;;;;2.90;1.50;;;;;;;5.68;97.78;94122.96;109113;1273;23421;-84
2024/01/18 06:57:21;;;;;;;1.70;1.50;;;;;;;5.71;97.34;94119.19;109120;1270;25218;-83
2024/01/18 06:59:53;;;;;;;1.20;1.00;;;;;;;5.69;97.32;94117.52;108515;1274;23147;-82
2024/01/18 07:02:24;;;;;;;2.10;1.10;;;;;;;5.69;97.60;94117.61;108582;1273;23049;-82
2024/01/18 07:04:55;;;;;;;1.70;1.20;;;;;;;5.72;97.67;94118.32;108581;1272;24216;-83
2024/01/18 07:07:27;;;;;;;4.10;1.20;;;;;;;5.75;97.95;94117.02;108568;1272;22537;-82
2024/01/18 07:09:58;;;;;;;2.30;1.30;;;;;;;5.81;98.52;94120.51;108547;1274;23402;-82
2024/01/18 07:12:29;;;;;;;1.10;0.80;;;;;;;5.83;98.40;94115.36;108552;1269;22538;-82
2024/01/18 07:15:00;;;;;;;1.20;0.80;;;;;;;5.82;98.42;94120.66;108600;1273;22525;-82
2024/01/18 07:17:31;;;;;;;0.50;0.40;;;;;;;5.83;99.25;94121.40;108587;1269;22561;-82
2024/01/18 07:20:02;;;;;;;1.20;0.80;;;;;;;5.92;99.58;94123.33;108585;1274;23589;-82
2024/01/18 07:22:33;;;;;;;1.40;1.20;;;;;;;5.93;99.49;94119.98;108589;1273;22539;-82
2024/01/18 07:25:05;;;;;;;1.00;0.90;;;;;;;5.92;99.06;94119.11;108574;1273;22537;-82
2024/01/18 07:27:37;;;;;;;3.50;1.50;;;;;;;5.86;98.57;94130.77;108574;1255;22524;-82
2024/01/18 07:30:10;;;;;;;1.40;1.10;;;;;;;5.78;98.51;94130.06;108539;1274;22670;-82
2024/01/18 07:32:41;;;;;;;2.00;1.30;;;;;;;5.75;98.83;94125.84;108652;1266;22692;-82
2024/01/18 07:35:13;;;;;;;1.60;1.10;;;;;;;5.77;98.96;94126.83;108582;1273;22545;-82
2024/01/18 07:37:44;;;;;;;1.50;0.80;;;;;;;5.83;99.11;94121.15;108679;1273;22508;-82
2024/01/18 07:40:16;;;;;;;1.10;0.90;;;;;;;5.86;99.21;94124.58;108560;1273;25416;-82
2024/01/18 07:42:47;;;;;;;1.50;1.00;;;;;;;5.89;99.26;94125.02;108599;1274;24570;-82
2024/01/18 07:45:18;;;;;;;1.30;0.80;;;;;;;5.93;99.25;94132.55;108501;1272;22581;-82
2024/01/18 07:47:49;;;;;;;3.00;1.10;;;;;;;5.92;98.82;94132.48;108561;1274;22530;-82
2024/01/18 07:50:20;;;;;;;2.60;1.50;;;;;;;5.89;98.82;94133.05;108531;1266;22664;-82
2024/01/18 07:52:52;;;;;;;1.30;1.00;;;;;;;5.88;98.82;94134.14;108592;1272;25456;-82
2024/01/18 07:55:24;;;;;;;1.80;0.90;;;;;;;5.88;99.01;94136.77;108554;1273;23573;-82
2024/01/18 07:57:55;;;;;;;2.00;1.10;;;;;;;5.88;98.86;94132.92;108549;1273;22521;-82
2024/01/18 08:00:26;;;;;;;2.70;1.30;;;;;;;5.84;98.91;94139.70;108549;1274;22583;-83
2024/01/18 08:02:57;;;;;;;0.90;0.80;;;;;;;5.81;98.87;94142.34;108600;1274;22579;-82
2024/01/18 08:05:28;;;;;;;1.10;0.90;;;;;;;5.83;99.18;94146.95;108549;1274;25412;-82
2024/01/18 08:07:59;;;;;;;1.90;0.90;;;;;;;5.83;99.19;94148.05;108600;1274;22938;-82
2024/01/18 08:10:30;;;;;;;1.90;0.70;;;;;;;5.82;99.20;94149.52;108587;1270;22555;-82
2024/01/18 08:13:02;;;;;;;2.50;1.00;;;;;;;5.85;99.22;94148.42;108577;1272;22554;-82
2024/01/18 08:15:33;;;;;;;1.80;1.20;;;;;;;5.90;99.41;94151.33;108557;1266;25443;-82
2024/01/18 08:18:05;;;;;;;1.60;0.80;;;;;;;5.94;99.29;94153.86;108595;1274;22543;-82
2024/01/18 08:20:36;;;;;;;1.40;1.10;;;;;;;5.95;99.47;94152.40;108551;1273;25412;-82
2024/01/18 08:23:07;;;;;;;2.00;1.20;;;;;;;5.96;99.37;94154.45;108540;1274;24209;-82
2024/01/18 08:25:38;;;;;;;2.50;1.10;;;;;;;5.96;99.20;94156.09;108555;1272;24407;-82
2024/01/18 08:28:13;;;;;;;1.20;0.90;;;;;;;5.98;99.44;94161.87;108553;1270;22581;-82
2024/01/18 08:30:44;;;;;;;1.90;1.20;;;;;;;6.01;99.35;94159.20;108535;1267;25049;-82
2024/01/18 08:33:15;;;;;;;3.20;1.50;;;;;;;5.99;99.21;94164.65;108595;1267;25316;-82
2024/01/18 08:35:46;;;;;;;2.00;0.90;;;;;;;5.98;99.30;94168.05;108588;1274;22550;-82
2024/01/18 08:38:17;;;;;;;2.20;1.60;;;;;;;6.02;99.81;94172.48;108584;1273;22552;-82
2024/01/18 08:40:50;;;;;;;1.40;0.90;;;;;;;6.03;99.46;94177.27;108568;1266;22527;-82
2024/01/18 08:43:26;;;;;;;1.80;1.20;;;;;;;6.03;99.47;94175.27;108590;1273;22536;-82
2024/01/18 08:45:59;;;;;;;2.10;1.10;;;;;;;6.04;99.41;94180.55;108562;1272;22546;-82
2024/01/18 08:48:30;;;;;;;2.60;1.70;;;;;;;6.05;99.51;94179.20;108544;1266;25425;-82
2024/01/18 08:51:02;;;;;;;2.20;1.30;;;;;;;6.07;99.55;94181.60;108536;1273;22531;-82
2024/01/18 08:53:34;;;;;;;1.80;1.20;;;;;;;6.09;99.42;94184.75;108545;1267;24801;-82
2024/01/18 08:56:05;;;;;;;3.50;1.80;;;;;;;6.09;99.50;94190.13;108590;1272;22644;-82
2024/01/18 08:58:36;;;;;;;2.00;1.30;;;;;;;6.12;99.39;94193.71;108571;1273;22521;-82
2024/01/18 09:01:07;;;;;;;1.90;1.20;;;;;;;6.16;99.46;94195.98;108572;1274;22650;-82
2024/01/18 09:03:38;;;;;;;2.40;1.70;;;;;;;6.19;99.37;94203.00;108598;1272;23278;-82
2024/01/18 09:06:09;;;;;;;2.40;1.50;;;;;;;6.18;99.14;94200.70;108547;1274;22583;-82
2024/01/18 09:08:40;;;;;;;2.30;1.60;;;;;;;6.14;99.10;94199.63;108567;1274;22514;-82
2024/01/18 09:11:14;;;;;;;1.80;1.00;;;;;;;6.11;98.80;94198.08;108563;1274;22629;-82
2024/01/18 09:13:45;;;;;;;1.20;1.00;;;;;;;6.12;98.96;94205.20;108595;1273;22548;-82
2024/01/18 09:16:18;;;;;;;2.90;2.10;;;;;;;6.15;99.24;94207.11;108573;1271;22543;-82
2024/01/18 09:18:50;;;;;;;3.90;2.50;;;;;;;6.14;98.92;94209.09;108566;1274;22525;-82
2024/01/18 09:21:21;;;;;;;4.20;2.70;;;;;;;6.09;98.90;94208.08;108559;1274;23049;-82
2024/01/18 09:23:53;;;;;;;4.40;3.20;;;;;;;6.04;98.64;94211.59;108601;1274;22575;-82
2024/01/18 09:26:25;;;;;;;5.30;2.70;;;;;;;5.97;98.49;94211.80;108568;1274;22524;-82
2024/01/18 09:28:56;;;;;;;4.50;2.60;;;;;;;5.90;98.36;94217.96;108534;1272;24022;-82
2024/01/18 09:31:27;;;;;;;6.10;3.30;;;;;;;5.86;98.63;94221.49;108596;1274;22519;-82
2024/01/18 09:33:58;;;;;;;3.60;2.40;;;;;;;5.84;98.56;94222.91;108583;1273;24235;-82
2024/01/18 09:36:29;;;;;;;5.20;3.00;;;;;;;5.81;98.56;94218.80;108626;1274;22525;-82
2024/01/18 09:39:00;;;;;;;4.40;2.90;;;;;;;5.78;98.59;94217.89;108565;1273;22524;-82
2024/01/18 09:41:32;;;;;;;5.70;3.10;;;;;;;5.72;98.67;94218.09;108554;1272;22528;-83
2024/01/18 09:44:05;;;;;;;3.90;3.00;;;;;;;5.68;98.60;94219.23;108596;1274;25247;-82
2024/01/18 09:46:36;;;;;;;4.50;3.10;;;;;;;5.64;98.79;94225.62;108591;1256;24232;-82
2024/01/18 09:49:08;;;;;;;7.00;3.20;;;;;;;5.59;98.83;94225.22;108512;1274;24220;-82
2024/01/18 09:51:39;;;;;;;5.10;3.40;;;;;;;5.58;99.01;94222.31;108563;1274;22539;-82
2024/01/18 09:54:10;;;;;;;4.50;3.00;;;;;;;5.57;98.95;94224.81;108626;1274;22555;-82
2024/01/18 09:56:46;;;;;;;4.20;3.00;;;;;;;5.56;99.22;94229.61;108553;1274;22547;-82
2024/01/18 09:59:19;;;;;;;4.20;3.00;;;;;;;5.59;99.35;94230.08;108553;1271;25297;-82
2024/01/18 10:01:50;;;;;;;5.30;3.20;;;;;;;5.61;99.16;94224.77;108591;1274;22557;-82
2024/01/18 10:04:23;;;;;;;6.70;3.80;;;;;;;5.59;99.11;94226.42;108593;1270;24283;-82
2024/01/18 10:06:54;;;;;;;4.00;3.20;;;;;;;5.59;99.25;94219.19;108706;1274;22532;-82
2024/01/18 10:09:25;;;;;;;5.10;3.20;;;;;;;5.56;99.14;94219.99;108576;1273;27115;-82
2024/01/18 10:11:56;;;;;;;6.20;3.50;;;;;;;5.54;99.33;94224.48;108596;1272;22711;-82
2024/01/18 10:17:34;;;;;;;6.70;4.30;;;;;;;5.47;99.38;94216.55;105811;1303;544851;-82
2024/01/18 10:20:13;;;;;;;5.70;3.50;;;;;;;5.45;99.51;94216.06;107737;1283;22580;-82
2024/01/18 10:22:48;;;;;;;5.40;3.60;;;;;;;5.44;99.68;94222.39;107680;1285;22527;-82
2024/01/18 10:25:25;;;;;;;5.40;3.70;;;;;;;5.49;99.92;94223.37;107703;1285;22628;-82
2024/01/18 10:27:57;;;;;;;5.70;3.50;;;;;;;5.52;99.94;94233.69;107794;1285;22710;-82
2024/01/18 10:30:28;;;;;;;5.40;3.70;;;;;;;5.50;99.88;94222.64;107590;1269;158442;-82
2024/01/18 10:33:02;;;;;;;5.60;3.90;;;;;;;5.51;99.85;94225.83;107812;1281;22541;-82
2024/01/18 10:35:35;;;;;;;6.30;4.10;;;;;;;5.53;99.84;94230.19;107784;1283;23321;-82
2024/01/18 10:38:09;;;;;;;7.60;4.70;;;;;;;5.55;99.85;94223.98;107795;1276;22536;-82
2024/01/18 10:40:41;;;;;;;6.30;4.10;;;;;;;5.57;99.92;94221.20;108371;1283;25566;-82
2024/01/18 10:43:14;;;;;;;6.30;3.60;;;;;;;5.59;99.94;94230.97;107918;1284;24234;-82
2024/01/18 10:45:47;;;;;;;7.80;4.40;;;;;;;5.60;99.83;94224.95;107805;1284;22561;-82
2024/01/18 10:48:20;;;;;;;8.10;4.60;;;;;;;5.62;99.96;94228.60;107842;1276;22537;-82
2024/01/18 10:50:53;;;;;;;6.70;4.60;;;;;;;5.65;100.00;94228.54;107785;1283;22549;-81
2024/01/18 10:53:26;;;;;;;6.50;4.30;;;;;;;5.69;99.90;94229.52;107830;1283;22643;-82
2024/01/18 10:55:57;;;;;;;7.60;4.80;;;;;;;5.70;99.78;94230.20;108121;1281;22721;-82
2024/01/18 10:58:29;;;;;;;7.10;4.60;;;;;;;5.72;99.85;94237.66;108065;1270;22558;-82
2024/01/18 11:01:00;;;;;;;7.40;5.00;;;;;;;5.75;99.99;94236.98;108051;1280;22647;-82
2024/01/18 11:03:32;;;;;;;7.90;4.00;;;;;;;5.75;99.72;94235.19;108094;1278;22530;-82
2024/01/18 11:06:09;;;;;;;6.70;4.40;;;;;;;5.73;99.82;94242.02;108072;1280;22758;-82
2024/01/18 11:08:44;;;;;;;7.80;4.90;;;;;;;5.75;99.95;94235.94;108083;1278;22542;-82
2024/01/18 11:11:15;;;;;;;9.30;6.20;;;;;;;5.76;99.84;94243.58;108068;1278;24618;-82
2024/01/18 11:13:47;;;;;;;9.30;6.00;;;;;;;5.78;99.85;94238.72;108067;1280;22553;-82
2024/01/18 11:16:20;;;;;;;8.40;5.00;;;;;;;5.79;99.77;94239.45;108067;1280;22533;-82
2024/01/18 11:19:00;;;;;;;7.00;4.00;;;;;;;5.78;99.69;94242.19;108070;1280;22665;-81
2024/01/18 11:21:46;;;;;;;7.90;4.70;;;;;;;5.78;99.97;94243.29;108083;1281;22536;-82
2024/01/18 11:24:19;;;;;;;6.80;4.10;;;;;;;5.78;99.92;94249.60;108034;1281;22663;-82
2024/01/18 11:26:50;;;;;;;6.10;4.30;;;;;;;5.78;99.88;94251.23;108070;1280;22562;-82
2024/01/18 11:29:24;;;;;;;7.00;4.20;;;;;;;5.74;99.82;94249.58;108026;1277;22538;-81
2024/01/18 11:31:55;;;;;;;5.60;3.40;;;;;;;5.71;99.93;94248.14;108014;1280;22557;-82
2024/01/18 11:34:34;;;;;;;5.00;3.00;;;;;;;5.72;99.95;94244.13;108013;1278;22538;-81
2024/01/18 11:37:16;;;;;;;5.30;3.90;;;;;;;5.75;100.00;94246.52;108020;1280;22554;-82
2024/01/18 11:40:00;;;;;;;6.40;4.00;;;;;;;5.76;100.00;94248.94;108030;1273;22591;-82
2024/01/18 11:42:33;;;;;;;6.20;3.90;;;;;;;5.78;100.00;94238.04;108109;1280;22605;-82
2024/01/18 11:45:07;;;;;;;4.30;3.10;;;;;;;5.77;99.96;94233.20;108340;1276;22544;-82
2024/01/18 11:47:39;;;;;;;6.70;4.30;;;;;;;5.76;100.00;94228.08;108374;1276;22537;-82
2024/01/18 11:50:15;;;;;;;6.80;4.60;;;;;;;5.70;99.99;94223.88;108361;1276;25544;-82
2024/01/18 11:52:47;;;;;;;6.30;4.30;;;;;;;5.73;100.00;94222.60;108346;1276;24220;-82
2024/01/18 11:55:24;;;;;;;7.30;4.60;;;;;;;5.78;100.00;94222.27;108333;1275;22565;-82
2024/01/18 11:57:55;;;;;;;7.00;4.90;;;;;;;5.83;100.00;94222.51;108607;1272;22517;-82